Time;durP1;ratioP1;P1;durP2;ratioP2;P2;SDS_P1;SDS_P2;PMS_P1;PMS_P2;Temp;Humidity;BMP_temperature;BMP_pressure;BME280_temperature;BME280_humidity;BME280_pressure;Samples;Min_cycle;Max_cycle;Signal;HPM_P1;HPM_P2
2022/08/09 00:01:48;;;;;;;;;;;25.20;68.80;;;;;;5114300;28;20014;-77
2022/08/09 00:04:14;;;;;;;;;;;25.20;68.70;;;;;;5114174;28;19920;-77
2022/08/09 00:06:40;;;;;;;;;;;25.20;68.70;;;;;;5114308;28;19920;-77
2022/08/09 00:09:06;;;;;;;;;;;25.20;68.50;;;;;;5114021;28;19907;-77
2022/08/09 00:11:32;;;;;;;;;;;25.20;68.60;;;;;;5114211;28;20388;-77
2022/08/09 00:13:57;;;;;;;;;;;25.20;68.60;;;;;;5114414;28;19911;-78
2022/08/09 00:16:23;;;;;;;;;;;25.20;68.60;;;;;;5114002;28;19907;-77
2022/08/09 00:18:48;;;;;;;;;;;25.20;68.60;;;;;;5114152;28;19931;-77
2022/08/09 00:21:14;;;;;;;;;;;25.20;68.70;;;;;;5114387;28;20274;-78
2022/08/09 00:23:39;;;;;;;;;;;25.20;68.60;;;;;;5114166;28;19912;-77
2022/08/09 00:26:05;;;;;;;;;;;25.30;68.60;;;;;;5117838;28;19973;-77
2022/08/09 00:28:31;;;;;;;;;;;25.20;68.60;;;;;;5117833;28;19961;-77
2022/08/09 00:30:57;;;;;;;;;;;25.20;68.70;;;;;;5117886;28;20345;-77
2022/08/09 00:33:22;;;;;;;;;;;25.30;68.50;;;;;;5117982;28;20010;-72
2022/08/09 00:35:48;;;;;;;;;;;25.20;68.40;;;;;;5117978;28;19912;-78
2022/08/09 00:38:14;;;;;;;;;;;25.10;68.40;;;;;;5117727;28;19916;-77
2022/08/09 00:40:40;;;;;;;;;;;25.10;68.80;;;;;;5117614;28;19962;-77
2022/08/09 00:43:06;;;;;;;;;;;25.10;68.70;;;;;;5116481;28;19958;-78
2022/08/09 00:45:32;;;;;;;;;;;25.10;68.80;;;;;;5117491;28;19951;-77
2022/08/09 00:47:57;;;;;;;;;;;25.10;69.20;;;;;;5117590;28;20384;-78
2022/08/09 00:50:23;;;;;;;;;;;25.10;68.80;;;;;;5117373;28;19907;-79
2022/08/09 00:52:51;;;;;;;;;;;25.00;68.80;;;;;;5117554;28;19961;-76
2022/08/09 00:55:16;;;;;;;;;;;25.00;69.70;;;;;;5117134;28;20409;-78
2022/08/09 00:57:42;;;;;;;;;;;25.00;69.10;;;;;;5117716;28;19950;-77
2022/08/09 01:00:08;;;;;;;;;;;24.90;69.00;;;;;;5117719;28;19914;-77
2022/08/09 01:02:37;;;;;;;;;;;24.90;69.30;;;;;;5116959;28;19908;-77
2022/08/09 01:05:08;;;;;;;;;;;24.90;69.40;;;;;;5117364;28;19919;-76
2022/08/09 01:07:53;;;;;;;;;;;24.90;69.20;;;;;;5117310;28;19919;-76
2022/08/09 01:10:24;;;;;;;;;;;24.90;69.00;;;;;;5117205;28;19907;-77
2022/08/09 01:13:02;;;;;;;;;;;24.80;69.50;;;;;;5117048;28;19965;-77
2022/08/09 01:15:29;;;;;;;;;;;24.80;69.60;;;;;;5116953;28;20354;-76
2022/08/09 01:18:00;;;;;;;;;;;24.80;70.00;;;;;;5117213;28;20400;-76
2022/08/09 01:20:41;;;;;;;;;;;24.70;69.70;;;;;;5116774;28;20400;-76
2022/08/09 01:23:06;;;;;;;;;;;24.70;69.70;;;;;;5116949;28;19915;-76
2022/08/09 01:25:50;;;;;;;;;;;24.60;69.70;;;;;;5116958;28;19915;-77
2022/08/09 01:28:16;;;;;;;;;;;24.50;70.20;;;;;;5116985;28;19952;-77
2022/08/09 01:30:42;;;;;;;;;;;24.60;70.10;;;;;;5116669;28;20272;-77
2022/08/09 01:33:08;;;;;;;;;;;24.60;70.20;;;;;;5116736;28;19907;-76
2022/08/09 01:35:53;;;;;;;;;;;24.60;70.20;;;;;;5116803;28;19908;-77
2022/08/09 01:38:21;;;;;;;;;;;24.60;70.00;;;;;;5116763;28;19916;-77
2022/08/09 01:40:48;;;;;;;;;;;24.70;70.50;;;;;;5116459;28;19908;-76
2022/08/09 01:43:14;;;;;;;;;;;24.70;70.00;;;;;;5116296;28;20273;-77
2022/08/09 01:45:41;;;;;;;;;;;24.70;70.00;;;;;;5116228;28;19920;-77
2022/08/09 01:48:07;;;;;;;;;;;24.60;70.10;;;;;;5116432;28;19915;-77
2022/08/09 01:50:33;;;;;;;;;;;24.60;69.60;;;;;;5115708;28;19915;-77
2022/08/09 01:53:00;;;;;;;;;;;24.50;70.50;;;;;;5116600;28;20262;-77
2022/08/09 01:55:27;;;;;;;;;;;24.50;70.00;;;;;;5114854;28;20007;-77
2022/08/09 01:57:54;;;;;;;;;;;24.50;70.60;;;;;;5116006;28;20366;-77
2022/08/09 02:00:20;;;;;;;;;;;24.50;70.40;;;;;;5116157;28;19918;-76
2022/08/09 02:02:48;;;;;;;;;;;24.50;70.00;;;;;;5116123;28;20300;-77
2022/08/09 02:05:15;;;;;;;;;;;24.50;71.00;;;;;;5116037;28;19920;-77
2022/08/09 02:07:53;;;;;;;;;;;24.40;70.20;;;;;;5116152;28;19907;-77
2022/08/09 02:10:21;;;;;;;;;;;24.40;70.20;;;;;;5114736;28;20282;-77
2022/08/09 02:12:47;;;;;;;;;;;24.40;70.70;;;;;;5116091;28;19930;-76
2022/08/09 02:15:15;;;;;;;;;;;24.40;70.60;;;;;;5116030;28;19912;-77
2022/08/09 02:17:41;;;;;;;;;;;24.50;70.40;;;;;;5115802;28;19911;-78
2022/08/09 02:20:07;;;;;;;;;;;24.40;70.50;;;;;;5115725;28;19908;-77
2022/08/09 02:22:53;;;;;;;;;;;24.40;70.50;;;;;;5115695;28;20380;-78
2022/08/09 02:25:26;;;;;;;;;;;24.40;70.80;;;;;;5115843;28;19923;-78
2022/08/09 02:27:58;;;;;;;;;;;24.40;70.10;;;;;;5115641;28;20023;-78
2022/08/09 02:30:24;;;;;;;;;;;24.40;71.30;;;;;;5115692;28;19998;-77
2022/08/09 02:32:51;;;;;;;;;;;24.40;70.70;;;;;;5115380;28;20362;-77
2022/08/09 02:35:20;;;;;;;;;;;24.40;70.90;;;;;;5115786;28;19911;-78
2022/08/09 02:37:47;;;;;;;;;;;24.40;70.80;;;;;;5114318;28;19941;-78
2022/08/09 02:40:15;;;;;;;;;;;24.40;70.80;;;;;;5115697;28;20362;-78
2022/08/09 02:42:41;;;;;;;;;;;24.40;70.70;;;;;;5115229;28;19968;-78
2022/08/09 02:45:10;;;;;;;;;;;24.40;71.00;;;;;;5115074;28;19959;-78
2022/08/09 02:47:36;;;;;;;;;;;24.40;70.60;;;;;;5114515;28;19908;-77
2022/08/09 02:50:06;;;;;;;;;;;24.40;70.80;;;;;;5114058;28;19957;-78
2022/08/09 02:52:46;;;;;;;;;;;24.50;70.80;;;;;;5115212;28;19914;-78
2022/08/09 02:55:12;;;;;;;;;;;24.50;70.50;;;;;;5115191;28;19915;-77
2022/08/09 02:57:39;;;;;;;;;;;24.50;70.50;;;;;;5115023;28;20298;-78
2022/08/09 03:00:09;;;;;;;;;;;24.50;70.90;;;;;;5115231;28;20312;-78
2022/08/09 03:02:36;;;;;;;;;;;24.50;70.60;;;;;;5114849;28;19908;-78
2022/08/09 03:05:02;;;;;;;;;;;24.50;70.60;;;;;;5114875;28;19919;-78
2022/08/09 03:07:28;;;;;;;;;;;24.50;70.60;;;;;;5115164;28;20378;-78
2022/08/09 03:09:54;;;;;;;;;;;24.50;70.70;;;;;;5115631;28;19908;-81
2022/08/09 03:12:22;;;;;;;;;;;24.50;70.70;;;;;;5114922;28;19918;-77
2022/08/09 03:14:48;;;;;;;;;;;24.50;70.40;;;;;;5114649;28;19919;-77
2022/08/09 03:17:14;;;;;;;;;;;24.50;70.10;;;;;;5114693;28;19915;-77
2022/08/09 03:19:41;;;;;;;;;;;24.50;70.40;;;;;;5114844;28;19947;-77
2022/08/09 03:22:07;;;;;;;;;;;24.50;70.50;;;;;;5113404;28;19908;-77
2022/08/09 03:24:33;;;;;;;;;;;24.50;70.40;;;;;;5115364;28;19908;-79
2022/08/09 03:26:59;;;;;;;;;;;24.50;70.30;;;;;;5114924;28;19915;-77
2022/08/09 03:29:25;;;;;;;;;;;24.50;70.90;;;;;;5114501;28;19951;-78
2022/08/09 03:31:51;;;;;;;;;;;24.50;70.30;;;;;;5114688;28;19919;-77
2022/08/09 03:34:17;;;;;;;;;;;24.40;70.40;;;;;;5114961;28;19914;-77
2022/08/09 03:36:42;;;;;;;;;;;24.40;70.30;;;;;;5114445;28;19916;-74
2022/08/09 03:39:08;;;;;;;;;;;24.50;70.40;;;;;;5114644;28;19912;-74
2022/08/09 03:41:33;;;;;;;;;;;24.50;70.30;;;;;;5113314;28;19908;-77
2022/08/09 03:43:59;;;;;;;;;;;24.60;70.30;;;;;;5114294;28;19954;-77
2022/08/09 03:46:24;;;;;;;;;;;24.50;70.20;;;;;;5114668;28;19923;-78
2022/08/09 03:48:53;;;;;;;;;;;24.60;70.20;;;;;;5114400;28;19919;-77
2022/08/09 03:51:20;;;;;;;;;;;24.70;70.20;;;;;;5114540;28;19911;-77
2022/08/09 03:53:46;;;;;;;;;;;24.70;70.10;;;;;;5114458;28;19912;-76
2022/08/09 03:56:12;;;;;;;;;;;24.70;70.10;;;;;;5114622;28;19961;-73
2022/08/09 03:58:37;;;;;;;;;;;24.70;70.10;;;;;;5114296;28;19908;-72
2022/08/09 04:01:03;;;;;;;;;;;24.80;70.20;;;;;;5118619;28;19915;-79
2022/08/09 04:03:29;;;;;;;;;;;24.80;70.10;;;;;;5118246;28;19915;-74
2022/08/09 04:05:55;;;;;;;;;;;24.80;69.70;;;;;;5118149;28;19926;-75
2022/08/09 04:08:20;;;;;;;;;;;24.80;69.60;;;;;;5118118;28;20259;-80
2022/08/09 04:10:46;;;;;;;;;;;24.80;69.70;;;;;;5118798;28;19915;-71
2022/08/09 04:13:11;;;;;;;;;;;24.80;69.80;;;;;;5117171;28;19916;-76
2022/08/09 04:15:37;;;;;;;;;;;24.80;69.80;;;;;;5118264;28;19995;-76
2022/08/09 04:18:04;;;;;;;;;;;24.80;69.70;;;;;;5117048;28;19981;-75
2022/08/09 04:20:29;;;;;;;;;;;24.80;69.60;;;;;;5118240;28;19922;-75
2022/08/09 04:22:55;;;;;;;;;;;24.80;69.60;;;;;;5117898;28;19907;-73
2022/08/09 04:25:20;;;;;;;;;;;24.80;69.70;;;;;;5117875;28;19915;-73
2022/08/09 04:27:46;;;;;;;;;;;24.80;69.50;;;;;;5118154;28;19915;-73
2022/08/09 04:30:13;;;;;;;;;;;24.80;69.50;;;;;;5116483;28;19908;-73
2022/08/09 04:32:38;;;;;;;;;;;24.80;69.30;;;;;;5117903;28;19908;-73
2022/08/09 04:35:05;;;;;;;;;;;24.80;69.40;;;;;;5117758;28;19912;-75
2022/08/09 04:37:30;;;;;;;;;;;24.90;69.50;;;;;;5118090;28;19927;-73
2022/08/09 04:39:56;;;;;;;;;;;24.90;69.50;;;;;;5117805;28;20275;-74
2022/08/09 04:42:22;;;;;;;;;;;24.80;69.50;;;;;;5117732;28;19908;-74
2022/08/09 04:44:47;;;;;;;;;;;24.80;69.70;;;;;;5117684;28;19960;-74
2022/08/09 04:47:13;;;;;;;;;;;24.80;69.70;;;;;;5117581;28;20323;-75
2022/08/09 04:49:39;;;;;;;;;;;24.80;69.80;;;;;;5117442;28;20327;-74
2022/08/09 04:52:04;;;;;;;;;;;24.90;69.90;;;;;;5117295;28;20426;-74
2022/08/09 04:54:30;;;;;;;;;;;24.90;70.40;;;;;;5117526;28;19916;-74
2022/08/09 04:56:56;;;;;;;;;;;24.90;69.40;;;;;;5117196;28;19934;-74
2022/08/09 04:59:21;;;;;;;;;;;24.90;69.40;;;;;;5117148;28;19936;-75
2022/08/09 05:01:47;;;;;;;;;;;24.90;69.40;;;;;;5117156;28;19907;-77
2022/08/09 05:04:13;;;;;;;;;;;24.90;69.60;;;;;;5115851;28;20014;-73
2022/08/09 05:06:38;;;;;;;;;;;24.90;69.70;;;;;;5117245;28;19916;-73
2022/08/09 05:09:04;;;;;;;;;;;24.90;69.50;;;;;;5116800;28;19908;-75
2022/08/09 05:11:30;;;;;;;;;;;24.90;69.40;;;;;;5116228;28;19911;-74
2022/08/09 05:13:55;;;;;;;;;;;24.90;69.50;;;;;;5116766;28;19908;-74
2022/08/09 05:16:21;;;;;;;;;;;25.00;69.40;;;;;;5116806;28;19915;-73
2022/08/09 05:18:46;;;;;;;;;;;24.90;69.30;;;;;;5116771;28;19908;-74
2022/08/09 05:21:12;;;;;;;;;;;25.00;69.30;;;;;;5116671;28;19915;-75
2022/08/09 05:23:37;;;;;;;;;;;25.00;69.10;;;;;;5116714;28;19908;-74
2022/08/09 05:26:03;;;;;;;;;;;25.00;69.00;;;;;;5116421;28;19915;-76
2022/08/09 05:28:29;;;;;;;;;;;24.90;69.10;;;;;;5116837;28;19916;-74
2022/08/09 05:30:54;;;;;;;;;;;24.90;69.30;;;;;;5116296;28;19908;-75
2022/08/09 05:33:20;;;;;;;;;;;24.90;69.30;;;;;;5116464;28;19990;-75
2022/08/09 05:35:45;;;;;;;;;;;24.90;69.30;;;;;;5116471;28;19912;-73
2022/08/09 05:38:11;;;;;;;;;;;25.00;69.30;;;;;;5114989;28;19912;-75
2022/08/09 05:40:36;;;;;;;;;;;25.00;69.00;;;;;;5116577;28;19959;-74
2022/08/09 05:43:02;;;;;;;;;;;24.90;68.90;;;;;;5116634;28;20338;-75
2022/08/09 05:45:28;;;;;;;;;;;24.90;69.10;;;;;;5116237;28;20432;-75
2022/08/09 05:47:54;;;;;;;;;;;25.00;69.10;;;;;;5115001;28;19908;-76
2022/08/09 05:50:24;;;;;;;;;;;24.90;68.90;;;;;;5115118;28;19908;-77
2022/08/09 05:52:50;;;;;;;;;;;24.90;69.10;;;;;;5116347;28;19908;-73
2022/08/09 05:55:16;;;;;;;;;;;24.80;69.10;;;;;;5115973;28;19915;-75
2022/08/09 05:57:41;;;;;;;;;;;24.90;69.30;;;;;;5115865;28;20269;-75
2022/08/09 06:00:07;;;;;;;;;;;24.90;69.20;;;;;;5116273;28;19915;-75
2022/08/09 06:02:33;;;;;;;;;;;24.90;69.20;;;;;;5114795;28;19908;-76
2022/08/09 06:04:59;;;;;;;;;;;24.80;69.30;;;;;;5115544;28;20281;-76
2022/08/09 06:07:25;;;;;;;;;;;24.90;69.30;;;;;;5116085;28;19908;-74
2022/08/09 06:09:50;;;;;;;;;;;24.90;69.20;;;;;;5115983;28;20371;-75
2022/08/09 06:12:16;;;;;;;;;;;25.00;69.00;;;;;;5116208;28;19914;-75
2022/08/09 06:14:41;;;;;;;;;;;25.00;69.00;;;;;;5115791;28;19908;-75
2022/08/09 06:17:07;;;;;;;;;;;25.00;69.10;;;;;;5114374;28;19918;-74
2022/08/09 06:19:32;;;;;;;;;;;25.00;69.10;;;;;;5115679;28;19958;-75
2022/08/09 06:21:58;;;;;;;;;;;25.00;68.80;;;;;;5114793;28;19915;-75
2022/08/09 06:24:23;;;;;;;;;;;25.10;68.80;;;;;;5115668;28;20413;-74
2022/08/09 06:26:49;;;;;;;;;;;25.10;68.60;;;;;;5115603;28;19969;-75
2022/08/09 06:29:14;;;;;;;;;;;25.10;68.80;;;;;;5115890;28;19969;-75
2022/08/09 06:31:40;;;;;;;;;;;25.10;68.80;;;;;;5115299;28;20380;-78
2022/08/09 06:34:06;;;;;;;;;;;25.10;68.70;;;;;;5115332;28;19916;-74
2022/08/09 06:36:31;;;;;;;;;;;25.20;68.70;;;;;;5115259;28;19937;-75
2022/08/09 06:38:57;;;;;;;;;;;25.30;68.60;;;;;;5115279;28;20006;-75
2022/08/09 06:41:23;;;;;;;;;;;25.20;68.40;;;;;;5115336;28;19908;-75
2022/08/09 06:43:49;;;;;;;;;;;25.30;68.50;;;;;;5114909;28;19922;-74
2022/08/09 06:46:15;;;;;;;;;;;25.30;69.00;;;;;;5115282;28;19915;-74
2022/08/09 06:48:41;;;;;;;;;;;25.30;68.50;;;;;;5115034;28;20410;-74
2022/08/09 06:51:07;;;;;;;;;;;25.30;68.30;;;;;;5114010;28;19908;-74
2022/08/09 06:53:32;;;;;;;;;;;25.20;68.30;;;;;;5115018;28;19918;-75
2022/08/09 06:55:59;;;;;;;;;;;25.30;68.60;;;;;;5115005;28;19951;-75
2022/08/09 06:58:24;;;;;;;;;;;25.30;68.50;;;;;;5114951;28;20350;-75
2022/08/09 07:00:50;;;;;;;;;;;25.20;68.50;;;;;;5115123;28;19912;-74
2022/08/09 07:03:15;;;;;;;;;;;25.20;68.40;;;;;;5115177;28;20002;-75
2022/08/09 07:05:41;;;;;;;;;;;25.10;68.60;;;;;;5114798;28;19926;-74
2022/08/09 07:08:06;;;;;;;;;;;25.20;68.80;;;;;;5114796;28;19911;-74
2022/08/09 07:10:33;;;;;;;;;;;25.30;68.80;;;;;;5114497;28;19943;-74
2022/08/09 07:12:59;;;;;;;;;;;25.40;68.70;;;;;;5114713;28;19915;-73
2022/08/09 07:15:25;;;;;;;;;;;25.50;68.50;;;;;;5114766;28;19916;-74
2022/08/09 07:17:50;;;;;;;;;;;25.60;68.20;;;;;;5114535;28;19912;-74
2022/08/09 07:20:16;;;;;;;;;;;25.70;68.10;;;;;;5114675;28;20311;-74
2022/08/09 07:22:41;;;;;;;;;;;25.80;68.00;;;;;;5114585;28;19973;-74
2022/08/09 07:25:07;;;;;;;;;;;25.90;68.00;;;;;;5114368;28;19920;-74
2022/08/09 07:27:33;;;;;;;;;;;25.90;67.70;;;;;;5114373;28;19931;-74
2022/08/09 07:29:59;;;;;;;;;;;26.00;67.40;;;;;;5114760;28;19923;-74
2022/08/09 07:32:27;;;;;;;;;;;26.00;67.10;;;;;;5114499;28;19960;-78
2022/08/09 07:34:53;;;;;;;;;;;26.00;67.30;;;;;;5114517;28;19923;-74
2022/08/09 07:37:18;;;;;;;;;;;26.00;67.30;;;;;;5114359;28;19916;-75
2022/08/09 07:39:44;;;;;;;;;;;26.10;67.40;;;;;;5114182;28;19908;-74
2022/08/09 07:42:10;;;;;;;;;;;26.20;67.30;;;;;;5114396;28;19919;-75
2022/08/09 07:44:35;;;;;;;;;;;26.30;67.20;;;;;;5114136;28;19998;-75
2022/08/09 07:47:01;;;;;;;;;;;26.30;67.00;;;;;;5114359;28;19941;-75
2022/08/09 07:49:27;;;;;;;;;;;26.40;66.80;;;;;;5114498;28;20293;-75
2022/08/09 07:51:52;;;;;;;;;;;26.40;66.70;;;;;;5114192;28;20004;-74
2022/08/09 07:54:18;;;;;;;;;;;26.50;66.70;;;;;;5113915;28;19907;-74
2022/08/09 07:56:43;;;;;;;;;;;26.60;66.70;;;;;;5114048;28;20391;-74
2022/08/09 07:59:09;;;;;;;;;;;26.60;66.30;;;;;;5114090;28;20383;-73
2022/08/09 08:01:34;;;;;;;;;;;26.60;66.20;;;;;;5114320;28;19908;-74
2022/08/09 08:04:03;;;;;;;;;;;26.70;66.00;;;;;;5112782;28;19924;-74
2022/08/09 08:06:32;;;;;;;;;;;26.80;65.70;;;;;;5114100;28;20346;-74
2022/08/09 08:08:57;;;;;;;;;;;26.80;65.40;;;;;;5095808;28;20032;-74
2022/08/09 08:11:23;;;;;;;;;;;26.80;65.60;;;;;;5114129;28;19954;-74
2022/08/09 08:13:48;;;;;;;;;;;26.80;65.00;;;;;;5112986;28;19943;-74
2022/08/09 08:16:14;;;;;;;;;;;26.80;65.30;;;;;;5114458;28;20330;-74
2022/08/09 08:18:40;;;;;;;;;;;26.80;64.90;;;;;;5114120;28;20374;-79
2022/08/09 08:21:05;;;;;;;;;;;26.70;65.30;;;;;;5114011;28;19912;-75
2022/08/09 08:23:31;;;;;;;;;;;26.80;65.50;;;;;;5113690;28;19908;-74
2022/08/09 08:25:56;;;;;;;;;;;26.80;65.10;;;;;;5113900;28;20006;-74
2022/08/09 08:28:22;;;;;;;;;;;26.80;65.20;;;;;;5114243;28;20340;-75
2022/08/09 08:30:47;;;;;;;;;;;26.80;65.40;;;;;;5114107;28;19908;-74
2022/08/09 08:33:13;;;;;;;;;;;26.80;64.70;;;;;;5113893;28;19912;-74
2022/08/09 08:35:39;;;;;;;;;;;26.90;64.90;;;;;;5112671;28;20281;-76
2022/08/09 08:38:05;;;;;;;;;;;27.00;64.80;;;;;;5114264;28;19916;-74
2022/08/09 08:40:31;;;;;;;;;;;27.00;65.00;;;;;;5114122;28;19935;-74
2022/08/09 08:42:56;;;;;;;;;;;27.00;64.50;;;;;;5113908;28;19908;-76
2022/08/09 08:45:26;;;;;;;;;;;27.00;64.30;;;;;;5114159;28;19969;-74
2022/08/09 08:47:52;;;;;;;;;;;27.10;64.20;;;;;;5117454;28;19907;-74
2022/08/09 08:50:18;;;;;;;;;;;27.00;63.50;;;;;;5115845;28;19915;-74
2022/08/09 08:52:44;;;;;;;;;;;27.00;63.80;;;;;;5117810;28;19908;-74
2022/08/09 08:55:10;;;;;;;;;;;26.90;63.80;;;;;;5117522;28;20474;-74
2022/08/09 08:57:36;;;;;;;;;;;26.90;64.40;;;;;;5117623;28;19908;-74
2022/08/09 09:00:03;;;;;;;;;;;27.00;64.40;;;;;;5117043;28;19908;-75
2022/08/09 09:02:29;;;;;;;;;;;27.10;64.00;;;;;;5116988;28;19908;-74
2022/08/09 09:04:56;;;;;;;;;;;27.10;63.60;;;;;;5116844;28;20281;-74
2022/08/09 09:07:25;;;;;;;;;;;27.00;64.00;;;;;;5117010;28;19912;-74
2022/08/09 09:09:51;;;;;;;;;;;27.10;63.80;;;;;;5116897;28;19912;-74
2022/08/09 09:12:18;;;;;;;;;;;27.10;64.10;;;;;;5116956;28;19912;-74
2022/08/09 09:14:44;;;;;;;;;;;27.20;64.20;;;;;;5117168;28;19915;-73
2022/08/09 09:17:10;;;;;;;;;;;27.30;64.00;;;;;;5116935;28;19911;-74
2022/08/09 09:19:36;;;;;;;;;;;27.30;63.60;;;;;;5116649;28;19915;-73
2022/08/09 09:22:01;;;;;;;;;;;27.30;63.30;;;;;;5117164;28;19953;-73
2022/08/09 09:24:28;;;;;;;;;;;27.40;63.60;;;;;;5115716;28;19912;-74
2022/08/09 09:26:54;;;;;;;;;;;27.40;63.60;;;;;;5116758;28;20006;-74
2022/08/09 09:29:26;;;;;;;;;;;27.40;62.30;;;;;;5116560;28;19911;-74
2022/08/09 09:31:52;;;;;;;;;;;27.40;62.80;;;;;;5116619;28;19908;-74
2022/08/09 09:34:17;;;;;;;;;;;27.40;63.20;;;;;;5115125;28;19915;-74
2022/08/09 09:36:43;;;;;;;;;;;27.50;62.90;;;;;;5116932;28;19961;-74
2022/08/09 09:39:09;;;;;;;;;;;27.50;63.00;;;;;;5116362;28;20346;-74
2022/08/09 09:41:35;;;;;;;;;;;27.50;62.30;;;;;;5116283;28;19953;-74
2022/08/09 09:44:03;;;;;;;;;;;27.50;63.10;;;;;;5116260;28;19916;-74
2022/08/09 09:46:36;;;;;;;;;;;27.50;63.00;;;;;;5114805;28;19912;-74
2022/08/09 09:49:09;;;;;;;;;;;27.50;62.30;;;;;;5116258;28;20111;-73
2022/08/09 09:51:36;;;;;;;;;;;27.50;62.10;;;;;;5116215;28;19967;-74
2022/08/09 09:54:07;;;;;;;;;;;27.40;62.20;;;;;;5115948;28;20006;-74
2022/08/09 09:56:34;;;;;;;;;;;27.40;62.50;;;;;;5114514;28;19908;-74
2022/08/09 09:59:00;;;;;;;;;;;27.40;62.00;;;;;;5115644;28;20369;-74
2022/08/09 10:01:26;;;;;;;;;;;27.40;61.90;;;;;;5116204;28;20005;-74
2022/08/09 10:03:52;;;;;;;;;;;27.40;62.20;;;;;;5114686;28;20324;-75
2022/08/09 10:06:18;;;;;;;;;;;27.40;62.00;;;;;;5116111;28;20269;-74
2022/08/09 10:08:44;;;;;;;;;;;27.40;62.00;;;;;;5115888;28;19916;-74
2022/08/09 10:11:17;;;;;;;;;;;27.40;62.00;;;;;;5115745;28;19908;-75
2022/08/09 10:13:42;;;;;;;;;;;27.40;62.10;;;;;;5114142;28;20405;-74
2022/08/09 10:16:08;;;;;;;;;;;27.40;62.00;;;;;;5115586;28;20007;-74
2022/08/09 10:18:34;;;;;;;;;;;27.30;61.40;;;;;;5115667;28;20002;-74
2022/08/09 10:21:07;;;;;;;;;;;27.30;60.60;;;;;;5115525;28;19912;-75
2022/08/09 10:23:32;;;;;;;;;;;27.20;61.10;;;;;;5115395;28;19930;-74
2022/08/09 10:26:01;;;;;;;;;;;27.20;61.80;;;;;;5115410;28;19914;-76
2022/08/09 10:28:28;;;;;;;;;;;27.20;60.60;;;;;;5115554;28;19912;-74
2022/08/09 10:30:53;;;;;;;;;;;27.20;61.40;;;;;;5114179;28;20265;-73
2022/08/09 10:33:19;;;;;;;;;;;27.20;61.10;;;;;;5115697;28;19914;-74
2022/08/09 10:35:45;;;;;;;;;;;27.20;61.00;;;;;;5114466;28;20308;-75
2022/08/09 10:38:11;;;;;;;;;;;27.20;61.20;;;;;;5115402;28;19920;-74
2022/08/09 10:40:37;;;;;;;;;;;27.20;61.30;;;;;;5115452;28;19908;-74
2022/08/09 10:43:04;;;;;;;;;;;27.20;59.10;;;;;;5115219;28;19919;-74
2022/08/09 10:45:30;;;;;;;;;;;27.30;60.10;;;;;;5115375;28;19912;-74
2022/08/09 10:47:59;;;;;;;;;;;27.30;60.50;;;;;;5114939;28;20392;-74
2022/08/09 10:51:05;;;;;;;;;;;27.30;58.80;;;;;;5115039;28;19951;-74
2022/08/09 10:53:33;;;;;;;;;;;27.40;59.70;;;;;;5114935;28;20441;-74
2022/08/09 10:56:17;;;;;;;;;;;27.40;60.00;;;;;;5103280;28;19912;-74
2022/08/09 10:58:43;;;;;;;;;;;27.40;60.20;;;;;;5114946;28;19994;-74
2022/08/09 11:01:28;;;;;;;;;;;27.50;58.90;;;;;;5113543;28;20362;-73
2022/08/09 11:04:10;;;;;;;;;;;27.40;58.80;;;;;;5113467;28;19927;-73
2022/08/09 11:06:36;;;;;;;;;;;27.50;59.90;;;;;;5114699;28;19911;-73
2022/08/09 11:09:05;;;;;;;;;;;27.50;60.20;;;;;;5113067;28;19960;-73
2022/08/09 11:11:51;;;;;;;;;;;27.50;59.60;;;;;;5114532;28;19955;-73
2022/08/09 11:14:30;;;;;;;;;;;27.50;59.70;;;;;;5098982;28;19918;-73
2022/08/09 11:16:56;;;;;;;;;;;27.60;59.80;;;;;;5114437;28;20251;-74
2022/08/09 11:19:40;;;;;;;;;;;27.60;59.70;;;;;;5114474;28;19915;-73
2022/08/09 11:22:07;;;;;;;;;;;27.60;59.20;;;;;;5114631;28;19918;-73
2022/08/09 11:24:55;;;;;;;;;;;27.60;59.20;;;;;;5114709;28;19908;-73
2022/08/09 11:27:31;;;;;;;;;;;27.60;59.10;;;;;;5105952;27;20408;-74
2022/08/09 11:29:57;;;;;;;;;;;27.50;59.40;;;;;;5114304;28;19947;-73
2022/08/09 11:32:38;;;;;;;;;;;27.60;59.70;;;;;;5113407;28;20370;-72
2022/08/09 11:35:13;;;;;;;;;;;27.50;59.10;;;;;;5114482;28;19912;-73
2022/08/09 11:37:39;;;;;;;;;;;27.50;59.70;;;;;;5114663;28;20479;-73
2022/08/09 11:40:06;;;;;;;;;;;27.40;59.40;;;;;;5114979;28;19956;-73
2022/08/09 11:42:46;;;;;;;;;;;27.40;59.60;;;;;;5114303;28;19908;-74
2022/08/09 11:45:28;;;;;;;;;;;27.40;59.70;;;;;;5114344;28;20292;-74
2022/08/09 11:47:56;;;;;;;;;;;27.30;59.90;;;;;;5114746;28;19912;-73
2022/08/09 11:50:22;;;;;;;;;;;27.30;59.20;;;;;;5114425;28;20303;-74
2022/08/09 11:53:13;;;;;;;;;;;27.20;58.80;;;;;;5114203;28;19914;-74
2022/08/09 11:55:40;;;;;;;;;;;27.20;57.80;;;;;;5110776;28;19914;-73
2022/08/09 11:58:05;;;;;;;;;;;27.20;56.90;;;;;;5113255;28;19911;-73
2022/08/09 12:00:32;;;;;;;;;;;27.10;58.40;;;;;;5114300;28;20384;-74
2022/08/09 12:02:58;;;;;;;;;;;27.10;57.90;;;;;;5113082;28;19987;-74
2022/08/09 12:05:34;;;;;;;;;;;27.00;58.20;;;;;;5112510;28;19951;-74
2022/08/09 12:07:59;;;;;;;;;;;27.00;58.30;;;;;;5112918;28;19931;-73
2022/08/09 12:10:25;;;;;;;;;;;27.00;58.40;;;;;;5113999;28;20342;-73
2022/08/09 12:12:51;;;;;;;;;;;27.00;58.40;;;;;;5114054;28;19912;-73
2022/08/09 12:15:20;;;;;;;;;;;27.00;58.70;;;;;;5114129;28;19911;-74
2022/08/09 12:17:47;;;;;;;;;;;27.00;58.60;;;;;;5113990;28;19916;-75
2022/08/09 12:20:12;;;;;;;;;;;27.00;58.50;;;;;;5114633;28;19908;-73
2022/08/09 12:22:38;;;;;;;;;;;27.10;58.60;;;;;;5117719;28;19907;-73
2022/08/09 12:25:15;;;;;;;;;;;27.10;58.70;;;;;;5117784;28;20369;-73
2022/08/09 12:27:41;;;;;;;;;;;27.20;58.30;;;;;;5117810;28;19923;-74
2022/08/09 12:30:08;;;;;;;;;;;27.20;57.60;;;;;;5117804;28;19933;-74
2022/08/09 12:32:34;;;;;;;;;;;27.30;57.80;;;;;;5117573;28;19915;-72
2022/08/09 12:35:02;;;;;;;;;;;27.30;57.30;;;;;;5117803;28;19965;-76
2022/08/09 12:37:32;;;;;;;;;;;27.40;58.00;;;;;;5116035;28;19916;-74
2022/08/09 12:39:58;;;;;;;;;;;27.40;56.40;;;;;;5117715;28;19907;-74
2022/08/09 12:42:24;;;;;;;;;;;27.50;56.80;;;;;;5117813;28;19961;-74
2022/08/09 12:44:50;;;;;;;;;;;27.50;57.20;;;;;;5117590;28;19916;-74
2022/08/09 12:47:16;;;;;;;;;;;27.60;57.70;;;;;;5116437;28;19914;-73
2022/08/09 12:49:41;;;;;;;;;;;27.70;57.10;;;;;;5117346;28;20403;-74
2022/08/09 12:52:09;;;;;;;;;;;27.70;56.00;;;;;;5116065;28;19915;-73
2022/08/09 12:54:53;;;;;;;;;;;27.70;55.90;;;;;;5116313;28;19995;-73
2022/08/09 12:57:54;;;;;;;;;;;27.80;56.50;;;;;;5117920;28;19911;-74
2022/08/09 13:00:21;;;;;;;;;;;27.90;55.20;;;;;;5054455;28;19914;-73
2022/08/09 13:02:49;;;;;;;;;;;28.00;56.30;;;;;;5104604;28;20378;-74
2022/08/09 13:05:16;;;;;;;;;;;28.10;55.90;;;;;;5117188;28;19926;-74
2022/08/09 13:07:41;;;;;;;;;;;28.20;55.60;;;;;;5117352;28;19911;-73
2022/08/09 13:10:07;;;;;;;;;;;28.20;55.10;;;;;;5117076;28;20346;-73
2022/08/09 13:12:32;;;;;;;;;;;28.30;56.10;;;;;;5115596;28;19961;-73
2022/08/09 13:15:05;;;;;;;;;;;28.40;55.00;;;;;;5116470;28;19912;-74
2022/08/09 13:17:31;;;;;;;;;;;28.60;55.20;;;;;;5116898;28;19963;-73
2022/08/09 13:19:57;;;;;;;;;;;28.80;55.40;;;;;;5116554;28;19943;-74
2022/08/09 13:22:23;;;;;;;;;;;28.80;54.90;;;;;;5115321;28;19908;-73
2022/08/09 13:24:52;;;;;;;;;;;28.90;54.70;;;;;;5117004;28;20270;-74
2022/08/09 13:27:29;;;;;;;;;;;29.10;54.40;;;;;;5116937;28;20292;-73
2022/08/09 13:30:03;;;;;;;;;;;29.20;55.00;;;;;;5116721;28;19952;-74
2022/08/09 13:32:43;;;;;;;;;;;29.40;54.70;;;;;;5116394;28;19908;-73
2022/08/09 13:35:09;;;;;;;;;;;29.70;54.90;;;;;;5116463;28;19961;-74
2022/08/09 13:37:34;;;;;;;;;;;30.10;53.80;;;;;;5116921;28;20355;-74
2022/08/09 13:40:00;;;;;;;;;;;30.50;54.40;;;;;;5116605;28;19912;-74
2022/08/09 13:42:26;;;;;;;;;;;30.90;53.30;;;;;;5116491;28;20057;-74
2022/08/09 13:44:51;;;;;;;;;;;31.20;53.10;;;;;;5117232;28;19908;-73
2022/08/09 13:47:18;;;;;;;;;;;31.50;53.10;;;;;;5114916;28;19919;-73
2022/08/09 13:49:44;;;;;;;;;;;31.70;54.30;;;;;;5116060;28;19915;-75
2022/08/09 13:52:09;;;;;;;;;;;32.00;53.40;;;;;;5116065;28;19914;-74
2022/08/09 13:54:35;;;;;;;;;;;32.20;52.20;;;;;;5115095;28;20281;-74
2022/08/09 13:57:01;;;;;;;;;;;32.30;52.40;;;;;;5116431;28;19912;-74
2022/08/09 13:59:27;;;;;;;;;;;32.30;49.40;;;;;;5116241;28;19908;-73
2022/08/09 14:01:52;;;;;;;;;;;32.50;52.60;;;;;;5116083;28;20307;-74
2022/08/09 14:04:19;;;;;;;;;;;32.50;49.90;;;;;;5116119;28;19919;-74
2022/08/09 14:06:54;;;;;;;;;;;32.70;49.40;;;;;;5115696;27;20275;-74
2022/08/09 14:09:19;;;;;;;;;;;32.80;49.00;;;;;;5115859;28;19919;-74
2022/08/09 14:11:45;;;;;;;;;;;32.90;47.60;;;;;;5115757;28;19908;-74
2022/08/09 14:14:10;;;;;;;;;;;32.90;49.50;;;;;;5114804;28;20007;-74
2022/08/09 14:16:36;;;;;;;;;;;33.10;48.90;;;;;;5115796;28;20320;-73
2022/08/09 14:19:01;;;;;;;;;;;33.10;49.60;;;;;;5114569;28;20350;-77